Skip Navigation Links
NOAA logo - Click to go to the NOAA homepage
NOAA's National Weather Service
Alaska Aviation Weather Unit
  NWS logo - Click to go to the NWS homepage
Left Navbar Graphic     12 AKDT = 20 GMT

   
NOAA is celebrating 200 years of science, service, and stewardship. Visit the NOAA 200th celebration Web site to learn more.
USA.gov is the U.S. Government's official Web portal to all Federal, state and local government Web resources and services.
Facebook
NWS on Facebook

Important Change Regarding the AAWU Web Presence

 

Over the last several months, the AAWU has been working to navigate its webpages to a nationally supported server. Security, as well as other needs, have necessitated the change.  We have been given an extension for the site changeover while we diligently work at addressing feedback received. As of July 14, 2017, aawu.arh.noaa.gov will be discontinued. The new AAWU web address is weather.gov/aawu. It is now live and will run in-parallel with the old site until it is discontinued on July 14, 2017. Please continue to send any feedback or questions regarding the new webpages to nws.ar.aawu.webauthors@noaa.gov.  Thank you for your patience during this time of transition.
AAWU Home :: Display TAF Add Bookmark
SPECI PALG 251406Z AUTO 00000KT 2 1/2SM BKN007 OVC044 11/11 A2994 RMK
     AO2 SLP300 PWINO FZRANO TSNO RVRNO=

SPECI PALG 251411Z AUTO 00000KT 1 3/4SM BR BKN005 OVC046 11/11 A2994 RMK
     AO2 VIS 1V5 P0001 PWINO=

SPECI PALG 251412Z AUTO 00000KT 1 3/4SM BKN005 OVC046 11/11 A2994 RMK
     AO2 SLP300 P0001 PWINO FZRANO TSNO RVRNO=

PALG 251417Z AUTO 24003KT 3/4SM BR OVC005 11/11 A2994 RMK AO2 VIS
     1/2V2 1/2 P0001 PWINO=

SPECI PALG 251418Z AUTO 23003KT 3/4SM OVC005 11/11 A2994 RMK AO2 SLP300
     P0001 PWINO FZRANO TSNO RVRNO=

SPECI PALG 251426Z AUTO 24003KT 1/2SM FG OVC005 11/11 A2994 RMK AO2
     P0001 PWINO=

SPECI PALG 251432Z AUTO 00000KT 1SM BR OVC005 11/11 A2994 RMK AO2 VIS
     1/2V5 CIG 003V008 P0001 PWINO=

SPECI PALG 251433Z AUTO 00000KT 1SM OVC005 11/11 A2994 RMK AO2 SLP300
     P0001 PWINO FZRANO TSNO RVRNO=

SPECI PALG 251440Z AUTO 00000KT 3/4SM BKN005 OVC017 11/11 A2993 RMK
 AO2 SLP300 P0001 PWINO FZRANO TSNO RVRNO=

SPECI PALG 251442Z AUTO 00000KT 1/2SM FG BKN005 OVC017 11/11 A2993
 RMK AO2 P0001 PWINO=

SPECI PALG 251448Z AUTO 00000KT 3/4SM BR SCT005 BKN010 OVC050 11/11
     A2993 RMK AO2 CIG 008V012 P0001 PWINO=

METAR PALG 251456Z AUTO 00000KT 1/2SM BKN005 BKN010 OVC018 11/11 A2993
     RMK AO2 SLP300 P0001 62000 57007 PWINO FZRANO TSNO RVRNO=

SPECI PALG 251504Z AUTO VRB03KT 3/4SM BR BKN003 BKN010 OVC050 11/11
     A2993 RMK AO2 CIG 002V007 PWINO=

SPECI PALG 251507Z AUTO 21003KT 1SM BR SCT003 BKN018 OVC050 11/11 A2993
     RMK AO2 VIS 1/2V2 1/2 PWINO=

SPECI PALG 251508Z AUTO 21003KT 1SM SCT003 BKN018 OVC050 11/11 A2993 RMK
     AO2 SLP300 P0999 PWINO FZRANO TSNO RVRNO=

SPECI PALG 251512Z AUTO 00000KT 2SM BR SCT005 BKN018 OVC060 11/11 A2993
     RMK AO2 VIS 1 1/2V3 PWINO=

SPECI PALG 251513Z AUTO 00000KT 2SM SCT005 BKN018 OVC060 11/11 A2993 RMK
     AO2 SLP300 P0999 PWINO FZRANO TSNO RVRNO=

SPECI PALG 251519Z AUTO 00000KT 3SM SCT005 BKN022 OVC055 11/11 A2993
 RMK AO2 SLP300 P0999 PWINO FZRANO TSNO RVRNO=

SPECI PALG 251521Z AUTO 00000KT 2 1/2SM SCT005 BKN022 OVC055 11/11 A2993
     RMK AO2 SLP299 P0999 PWINO FZRANO TSNO RVRNO=

SPECI PALG 251532Z AUTO 00000KT 3SM FEW005 BKN024 OVC055 11/11 A2994
 RMK AO2 SLP300 P0999 PWINO FZRANO TSNO RVRNO=

PALG 251537Z AUTO VRB03KT 5SM BR FEW007 BKN024 OVC060 11/11 A2994
     RMK AO2 PWINO=

METAR PALG 251556Z AUTO 00000KT 10SM FEW007 SCT012 OVC024 11/11 A2994
     RMK AO2 SLP300 P0999 PWINO FZRANO TSNO RVRNO=

SPECI PALG 251605Z AUTO 00000KT 2SM BR FEW007 BKN014 OVC022 11/11 A2994
     RMK AO2 PWINO=

SPECI PALG 251608Z AUTO 00000KT 1 3/4SM FEW007 SCT014 OVC022 11/11 A2994
     RMK AO2 SLP300 PWINO FZRANO TSNO RVRNO=

SPECI PALG 251613Z AUTO 00000KT 1 1/4SM BR FEW007 BKN019 OVC024 11/11
     A2993 RMK AO2 PWINO=

SPECI PALG 251631Z AUTO 00000KT 2SM FEW016 BKN023 OVC029 11/11 A2993 RMK
     AO2 SLP299 P0001 PWINO FZRANO TSNO RVRNO=

SPECI PALG 251633Z AUTO 00000KT 2 1/2SM BR FEW016 SCT023 OVC032 11/11
     A2993 RMK AO2 P0001 PWINO=

PALG 251637Z AUTO 00000KT 3SM FEW016 SCT023 OVC032 11/11 A2993 RMK
     AO2 SLP299 P0001 PWINO FZRANO TSNO RVRNO=

SPECI PALG 251642Z AUTO 22004KT 4SM BR FEW023 OVC032 11/11 A2993 RMK AO2
     P0002 PWINO=

METAR PALG 251656Z AUTO 24005KT 6SM BR OVC032 11/11 A2993 RMK AO2 SLP139
     P0002 T01110106 PWINO=

SPECI PALG 251721Z AUTO 00000KT 4SM BR BKN006 OVC034 11/11 A2993 RMK AO2
     P0001 PWINO=

SPECI PALG 251755Z AUTO 00000KT 2 1/2SM BKN006 OVC010 12/11 A2992 RMK
     AO2 SLP299 PWINO FZRANO TSNO RVRNO=

METAR PALG 251756Z AUTO 00000KT 3SM BR BKN008 OVC012 12/11 A2992 RMK AO2
     CIG 004V010 SLP137 P0002 60006 T01170111 10117 20111 58003
     PWINO=

PALG 251757Z AUTO 00000KT 3SM BKN008 OVC012 12/11 A2992 RMK AO2
     SLP299 PWINO FZRANO TSNO RVRNO=

SPECI PALG 251810Z AUTO 00000KT 2 1/2SM BKN008 OVC012 12/11 A2992 RMK
     AO2 SLP299 PWINO FZRANO TSNO RVRNO=

SPECI PALG 251815Z AUTO 17004KT 2 1/2SM BR OVC008 12/11 A2992 RMK AO2
     CIG 005V012 P0001 PWINO=

SPECI PALG 251848Z AUTO 00000KT 1 3/4SM BKN006 OVC032 12/12 A2992 RMK
     AO2 SLP299 PWINO FZRANO TSNO RVRNO=

PALG 251853Z AUTO 21004KT 1 3/4SM BR BKN006 OVC031 12/12 A2992 RMK
     AO2 P0002 PWINO=

METAR PALG 251856Z AUTO 20003KT 2SM BR BKN006 OVC009 12/12 A2992 RMK
 AO2 SLP137 P0002 T01170117 PWINO=

SPECI PALG 251905Z AUTO VRB03KT 1 3/4SM OVC006 12/12 A2992 RMK AO2
     SLP299 P0998 PWINO FZRANO TSNO RVRNO=

SPECI PALG 251909Z AUTO VRB04KT 2SM BKN006 OVC010 12/12 A2992 RMK AO2
     SLP299 P0998 PWINO FZRANO TSNO RVRNO=

PALG 251915Z AUTO VRB03KT 3SM BKN006 BKN012 OVC023 12/12 A2992 RMK
     AO2 SLP299 P0998 PWINO FZRANO TSNO RVRNO=

SPECI PALG 251920Z AUTO VRB03KT 5SM BR BKN006 BKN011 OVC021 12/12 A2992
     RMK AO2 PWINO=

SPECI PALG 251931Z AUTO 20005KT 2 1/2SM BR SCT006 OVC011 12/12 A2992 RMK
     AO2 VIS 1 1/4V5 PWINO $=

SPECI PALG 251932Z AUTO 20005KT 2 1/2SM SCT006 OVC011 12/12 A2992
 RMK AO2 SLP299 P0998 PWINO FZRANO TSNO RVRNO=

SPECI PALG 251935Z AUTO 20004KT 1 3/4SM BR BKN009 OVC013 12/12 A2992 RMK
     AO2 CIG 005V011=

SPECI PALG 251940Z AUTO VRB03KT 2SM BKN007 BKN012 OVC020 12/12 A2992 RMK
     AO2 SLP299 P0998 PWINO FZRANO TSNO RVRNO=

SPECI PALG 251942Z AUTO VRB03KT 3SM BR SCT007 BKN012 13/12 A2991 RMK AO2
     PWINO $=

SPECI PALG 251943Z AUTO VRB03KT 3SM SCT007 BKN012 13/12 A2991 RMK AO2
     SLP299 P0998 PWINO FZRANO TSNO RVRNO=

SPECI PALG 251948Z AUTO 19005KT 2 1/2SM BR BKN009 OVC012 13/12 A2992 RMK
     AO2 VIS 1 1/4V5 CIG 005V011 PWINO $=

PALG 251949Z AUTO 19005KT 2 1/2SM BKN009 OVC012 13/12 A2992 RMK
     AO2 SLP299 P0998 PWINO FZRANO TSNO RVRNO=

SPECI PALG 251953Z AUTO 00000KT 3SM BKN009 OVC014 13/12 A2991 RMK AO2
     SLP299 P0998 PWINO FZRANO TSNO RVRNO=

METAR PALG 251956Z AUTO VRB04KT 4SM BR BKN009 OVC014 13/12 A2991 RMK AO2
     CIG 005V011 SLP135 T01330122 PWINO $=

SPECI PALG 252036Z AUTO VRB04KT 10SM BKN011 BKN016 OVC042 13/12
 A2991 RMK AO2 CIG 006V012 PWINO=


NOAA's National Weather Service
Alaska Aviation Weather Unit
6930 Sand Lake Road
Anchorage, AK 99502-1845
Disclaimer
Credits
Glossary
Privacy Policy
About Us
Career Opportunities
Contact AAWU Internet Services Site last modified: April, 17th 2012